createdAt,value
2019-02-17T00:00:32.227Z,7.10
2019-02-17T00:01:16.361Z,7.10
2019-02-17T00:01:53.887Z,7.20
2019-02-17T00:02:31.491Z,7.20
2019-02-17T00:03:09.625Z,7.20
2019-02-17T00:03:47.089Z,7.20
2019-02-17T00:04:24.465Z,7.20
2019-02-17T00:05:02.667Z,7.20
2019-02-17T00:05:40.156Z,7.20
2019-02-17T00:06:18.087Z,7.20
2019-02-17T00:06:55.255Z,7.20
2019-02-17T00:07:32.465Z,7.20
2019-02-17T00:08:10.623Z,7.20
2019-02-17T00:08:48.615Z,7.20
2019-02-17T00:09:26.653Z,7.20
2019-02-17T00:10:04.381Z,7.30
2019-02-17T00:10:41.821Z,7.20
2019-02-17T00:11:19.703Z,7.30
2019-02-17T00:12:16.241Z,7.30
2019-02-17T00:12:53.855Z,7.30
2019-02-17T00:13:30.933Z,7.30
2019-02-17T00:14:08.813Z,7.30
2019-02-17T00:14:46.493Z,7.30
2019-02-17T00:15:24.185Z,7.30
2019-02-17T00:16:02.014Z,7.30
2019-02-17T00:16:39.245Z,7.30
2019-02-17T00:17:16.941Z,7.30
2019-02-17T00:17:54.483Z,7.30
2019-02-17T00:18:32.135Z,7.30
2019-02-17T00:19:09.623Z,7.30
2019-02-17T00:19:47.674Z,7.30
2019-02-17T00:20:25.713Z,7.40
2019-02-17T00:21:02.883Z,7.40
2019-02-17T00:21:40.349Z,7.40
2019-02-17T00:22:17.990Z,7.40
2019-02-17T00:22:55.675Z,7.40
2019-02-17T00:23:33.452Z,7.40
2019-02-17T00:24:10.877Z,7.40
2019-02-17T00:24:48.609Z,7.40
2019-02-17T00:25:26.711Z,7.40
2019-02-17T00:26:04.591Z,7.40
2019-02-17T00:26:45.309Z,7.40
2019-02-17T00:27:22.873Z,7.40
2019-02-17T00:28:01.138Z,7.40
2019-02-17T00:28:38.587Z,7.50
2019-02-17T00:29:16.507Z,7.50
2019-02-17T00:29:54.441Z,7.50
2019-02-17T00:30:31.771Z,7.50
2019-02-17T00:31:09.420Z,7.50
2019-02-17T00:31:46.869Z,7.50
2019-02-17T00:32:24.909Z,7.50
2019-02-17T00:33:02.659Z,7.50
2019-02-17T00:33:40.487Z,7.50
2019-02-17T00:34:18.553Z,7.50
2019-02-17T00:34:56.726Z,7.50
2019-02-17T00:35:35.155Z,7.50
2019-02-17T00:36:13.384Z,7.50
2019-02-17T00:36:50.908Z,7.50
2019-02-17T00:37:28.835Z,7.50
2019-02-17T00:38:05.865Z,7.50
2019-02-17T00:38:43.897Z,7.50
2019-02-17T00:39:21.781Z,7.50
2019-02-17T00:39:59.694Z,7.50
2019-02-17T00:40:37.659Z,7.50
2019-02-17T00:41:15.035Z,7.50
2019-02-17T00:41:52.371Z,7.50
2019-02-17T00:42:32.721Z,7.50
2019-02-17T00:43:10.421Z,7.50
2019-02-17T00:43:47.871Z,7.50
2019-02-17T00:44:25.364Z,7.50
2019-02-17T00:45:03.142Z,7.50
2019-02-17T00:45:40.309Z,7.50
2019-02-17T00:46:18.149Z,7.50
2019-02-17T00:46:55.585Z,7.50
2019-02-17T00:47:32.874Z,7.50
2019-02-17T00:48:10.287Z,7.60
2019-02-17T00:48:47.931Z,7.50
2019-02-17T00:49:26.381Z,7.60
2019-02-17T00:50:04.364Z,7.60
2019-02-17T00:50:41.414Z,7.60
2019-02-17T00:51:19.246Z,7.60
2019-02-17T00:51:56.972Z,7.60
2019-02-17T00:52:34.418Z,7.60
2019-02-17T00:53:12.207Z,7.60
2019-02-17T00:53:49.913Z,7.60
2019-02-17T00:54:27.274Z,7.60
2019-02-17T00:55:05.195Z,7.60
2019-02-17T00:55:42.620Z,7.60
2019-02-17T00:56:20.673Z,7.60
2019-02-17T00:56:57.699Z,7.60
2019-02-17T00:57:35.529Z,7.60
2019-02-17T00:58:12.955Z,7.60
2019-02-17T00:58:50.952Z,7.70
2019-02-17T00:59:28.329Z,7.70
2019-02-17T01:00:07.200Z,7.70
2019-02-17T01:00:44.499Z,7.60
2019-02-17T01:01:22.549Z,7.70
2019-02-17T01:01:59.578Z,7.70
2019-02-17T01:02:37.505Z,7.70
2019-02-17T01:03:14.943Z,7.70
2019-02-17T01:03:52.617Z,7.70
2019-02-17T01:04:30.209Z,7.70
2019-02-17T01:05:08.217Z,7.70
2019-02-17T01:05:46.189Z,7.70
2019-02-17T01:06:23.957Z,7.70
2019-02-17T01:07:01.971Z,7.70
2019-02-17T01:07:40.099Z,7.70
2019-02-17T01:08:17.933Z,7.70
2019-02-17T01:08:55.661Z,7.70
2019-02-17T01:09:33.297Z,7.70
2019-02-17T01:10:11.105Z,7.70
2019-02-17T01:10:49.058Z,7.80
2019-02-17T01:11:29.715Z,7.80
2019-02-17T01:12:07.721Z,7.80
2019-02-17T01:12:45.437Z,7.80
2019-02-17T01:13:22.883Z,7.80
2019-02-17T01:14:00.604Z,7.80
2019-02-17T01:14:37.740Z,7.80
2019-02-17T01:15:15.733Z,7.80
2019-02-17T01:15:53.040Z,7.80
2019-02-17T01:16:30.686Z,7.80
2019-02-17T01:17:08.633Z,7.80
2019-02-17T01:17:46.362Z,7.80
2019-02-17T01:18:24.267Z,7.90
2019-02-17T01:19:02.201Z,7.90
2019-02-17T01:19:40.185Z,7.90
2019-02-17T01:20:17.717Z,7.90
2019-02-17T01:20:55.424Z,7.90
2019-02-17T01:21:33.103Z,7.90
2019-02-17T01:22:10.878Z,7.90
2019-02-17T01:22:48.449Z,7.90
2019-02-17T01:23:25.961Z,7.90
2019-02-17T01:24:03.297Z,7.90
2019-02-17T01:24:41.221Z,7.90
2019-02-17T01:25:19.306Z,7.90
2019-02-17T01:25:56.752Z,7.90
2019-02-17T01:26:34.430Z,7.90
2019-02-17T01:27:12.460Z,8.00
2019-02-17T01:27:50.347Z,8.00
2019-02-17T01:28:28.216Z,8.00
2019-02-17T01:29:05.751Z,8.00
2019-02-17T01:29:43.097Z,8.00
2019-02-17T01:30:20.844Z,8.00
2019-02-17T01:30:58.574Z,8.00
2019-02-17T01:31:36.304Z,7.90
2019-02-17T01:32:14.026Z,8.00
2019-02-17T01:32:51.719Z,8.00
2019-02-17T01:33:29.692Z,8.00
2019-02-17T01:34:10.938Z,8.00
2019-02-17T01:34:48.321Z,8.00
2019-02-17T01:35:25.908Z,8.00
2019-02-17T01:36:02.875Z,8.00
2019-02-17T01:36:40.664Z,8.00
2019-02-17T01:37:21.206Z,8.00
2019-02-17T01:37:58.578Z,8.00
2019-02-17T01:38:36.601Z,8.00
2019-02-17T01:39:13.740Z,8.00
2019-02-17T01:39:55.016Z,8.00
2019-02-17T01:40:32.390Z,8.00
2019-02-17T01:41:10.332Z,8.00
2019-02-17T01:41:48.409Z,8.00
2019-02-17T01:42:25.850Z,8.00
2019-02-17T01:43:03.171Z,8.00
2019-02-17T01:43:40.251Z,8.00
2019-02-17T01:44:18.021Z,8.00
2019-02-17T01:44:55.991Z,8.00
2019-02-17T01:45:33.288Z,8.00
2019-02-17T01:46:10.962Z,8.00
2019-02-17T01:46:48.756Z,8.00
2019-02-17T01:47:45.647Z,8.00
2019-02-17T01:48:23.692Z,8.00
2019-02-17T01:49:01.931Z,8.00
2019-02-17T01:49:39.616Z,8.00
2019-02-17T01:50:17.556Z,8.00
2019-02-17T01:50:58.077Z,8.00
2019-02-17T01:51:36.072Z,8.00
2019-02-17T01:52:13.843Z,8.00
2019-02-17T01:52:51.555Z,8.00
2019-02-17T01:53:29.300Z,8.00
2019-02-17T01:54:07.279Z,8.00
2019-02-17T01:54:45.317Z,8.00
2019-02-17T01:55:22.759Z,8.00
2019-02-17T01:56:00.411Z,8.10
2019-02-17T01:56:38.179Z,8.00
2019-02-17T01:57:15.513Z,8.10
2019-02-17T01:57:53.474Z,8.10
2019-02-17T01:58:30.943Z,8.10
2019-02-17T01:59:08.868Z,8.10
2019-02-17T01:59:46.899Z,8.10
2019-02-17T02:00:24.671Z,8.10
2019-02-17T02:01:02.127Z,8.10
2019-02-17T02:01:39.879Z,8.10
2019-02-17T02:02:17.926Z,8.10
2019-02-17T02:02:55.609Z,8.10
2019-02-17T02:03:33.061Z,8.10
2019-02-17T02:04:10.542Z,8.10
2019-02-17T02:04:48.551Z,8.10
2019-02-17T02:05:25.921Z,8.10
2019-02-17T02:06:06.661Z,8.10
2019-02-17T02:06:44.674Z,8.10
2019-02-17T02:07:22.708Z,8.20
2019-02-17T02:08:00.264Z,8.20
2019-02-17T02:08:38.239Z,8.20
2019-02-17T02:09:15.598Z,8.20
2019-02-17T02:09:53.439Z,8.20
2019-02-17T02:10:31.598Z,8.20
2019-02-17T02:11:09.271Z,8.20
2019-02-17T02:11:47.159Z,8.20
2019-02-17T02:12:24.720Z,8.20
2019-02-17T02:13:02.094Z,8.20
2019-02-17T02:13:40.085Z,8.20
2019-02-17T02:14:17.517Z,8.20
2019-02-17T02:14:55.436Z,8.20
2019-02-17T02:15:32.878Z,8.20
2019-02-17T02:16:10.520Z,8.20
2019-02-17T02:16:47.787Z,8.20
2019-02-17T02:17:25.518Z,8.20
2019-02-17T02:18:03.486Z,8.20
2019-02-17T02:18:41.418Z,8.20
2019-02-17T02:19:18.989Z,8.20
2019-02-17T02:19:56.720Z,8.20
2019-02-17T02:20:33.996Z,8.20
2019-02-17T02:21:11.466Z,8.20
2019-02-17T02:21:48.948Z,8.20
2019-02-17T02:22:26.552Z,8.20
2019-02-17T02:23:04.012Z,8.20
2019-02-17T02:24:00.854Z,8.20
2019-02-17T02:24:38.576Z,8.20
2019-02-17T02:25:16.382Z,8.20
2019-02-17T02:25:54.092Z,8.20
2019-02-17T02:26:31.780Z,8.20
2019-02-17T02:27:09.264Z,8.20
2019-02-17T02:27:46.536Z,8.20
2019-02-17T02:28:23.928Z,8.20
2019-02-17T02:29:01.716Z,8.20
2019-02-17T02:29:41.374Z,8.20
2019-02-17T02:30:18.716Z,8.20
2019-02-17T02:30:56.485Z,8.20
2019-02-17T02:31:34.168Z,8.20
2019-02-17T02:32:12.196Z,8.20
2019-02-17T02:32:49.532Z,8.20
2019-02-17T02:33:27.153Z,8.20
2019-02-17T02:34:04.898Z,8.20
2019-02-17T02:34:42.276Z,8.20
2019-02-17T02:35:20.023Z,8.20
2019-02-17T02:35:57.060Z,8.20
2019-02-17T02:36:35.011Z,8.20
2019-02-17T02:37:12.743Z,8.20
2019-02-17T02:37:49.847Z,8.20
2019-02-17T02:38:27.251Z,8.20
2019-02-17T02:39:05.736Z,8.20
2019-02-17T02:39:43.762Z,8.20
2019-02-17T02:40:21.124Z,8.20
2019-02-17T02:40:58.835Z,8.20
2019-02-17T02:41:36.597Z,8.20
2019-02-17T02:42:14.069Z,8.20
2019-02-17T02:42:51.992Z,8.20
2019-02-17T02:43:29.665Z,8.20
2019-02-17T02:44:07.389Z,8.20
2019-02-17T02:44:45.157Z,8.20
2019-02-17T02:45:22.606Z,8.20
2019-02-17T02:46:00.271Z,8.20
2019-02-17T02:46:37.983Z,8.20
2019-02-17T02:47:15.843Z,8.20
2019-02-17T02:47:53.759Z,8.20
2019-02-17T02:48:31.231Z,8.20
2019-02-17T02:49:08.936Z,8.20
2019-02-17T02:49:46.653Z,8.20
2019-02-17T02:50:24.488Z,8.20
2019-02-17T02:51:02.360Z,8.20
2019-02-17T02:51:40.282Z,8.20
2019-02-17T02:52:18.272Z,8.20
2019-02-17T02:52:58.037Z,8.20
2019-02-17T02:53:36.076Z,8.20
2019-02-17T02:54:13.471Z,8.20
2019-02-17T02:54:51.340Z,8.20
2019-02-17T02:55:29.055Z,8.20
2019-02-17T02:56:06.499Z,8.20
2019-02-17T02:56:43.968Z,8.20
2019-02-17T02:57:21.999Z,8.20
2019-02-17T02:57:59.741Z,8.20
2019-02-17T02:58:37.343Z,8.20
2019-02-17T02:59:15.200Z,8.20
2019-02-17T02:59:52.887Z,8.20
2019-02-17T03:00:30.816Z,8.20
2019-02-17T03:01:08.992Z,8.20
2019-02-17T03:01:46.556Z,8.20
2019-02-17T03:02:24.583Z,8.20
2019-02-17T03:03:03.459Z,8.20
2019-02-17T03:03:40.749Z,8.20
2019-02-17T03:04:18.740Z,8.20
2019-02-17T03:04:56.449Z,8.20
2019-02-17T03:05:34.268Z,8.20
2019-02-17T03:06:18.234Z,8.20
2019-02-17T03:07:00.736Z,8.20
2019-02-17T03:07:38.523Z,8.20
2019-02-17T03:08:16.310Z,8.20
2019-02-17T03:08:53.367Z,8.20
2019-02-17T03:09:30.740Z,8.20
2019-02-17T03:10:08.973Z,8.20
2019-02-17T03:10:46.696Z,8.20
2019-02-17T03:11:24.403Z,8.20
2019-02-17T03:12:02.643Z,8.20
2019-02-17T03:12:40.644Z,8.20
2019-02-17T03:13:18.381Z,8.20
2019-02-17T03:13:56.280Z,8.20
2019-02-17T03:14:33.964Z,8.30
2019-02-17T03:15:11.542Z,8.30
2019-02-17T03:15:49.021Z,8.30
2019-02-17T03:16:26.499Z,8.30
2019-02-17T03:17:04.517Z,8.30
2019-02-17T03:17:41.870Z,8.20
2019-02-17T03:18:20.700Z,8.20
2019-02-17T03:18:58.686Z,8.20
2019-02-17T03:19:36.046Z,8.30
2019-02-17T03:20:13.819Z,8.30
2019-02-17T03:20:51.433Z,8.20
2019-02-17T03:21:29.210Z,8.30
2019-02-17T03:22:07.214Z,8.30
2019-02-17T03:22:46.815Z,8.30
2019-02-17T03:23:24.602Z,8.30
2019-02-17T03:24:02.286Z,8.30
2019-02-17T03:24:39.970Z,8.30
2019-02-17T03:25:17.376Z,8.30
2019-02-17T03:25:55.361Z,8.30
2019-02-17T03:26:32.818Z,8.30
2019-02-17T03:27:10.178Z,8.30
2019-02-17T03:27:47.602Z,8.30
2019-02-17T03:28:24.967Z,8.30
2019-02-17T03:29:04.777Z,8.30
2019-02-17T03:29:42.153Z,8.30
2019-02-17T03:30:19.241Z,8.30
2019-02-17T03:30:56.960Z,8.30
2019-02-17T03:31:34.951Z,8.30
2019-02-17T03:32:12.901Z,8.30
2019-02-17T03:32:50.304Z,8.30
2019-02-17T03:33:28.266Z,8.30
2019-02-17T03:34:05.837Z,8.30
2019-02-17T03:34:42.953Z,8.30
2019-02-17T03:35:21.812Z,8.30
2019-02-17T03:35:59.607Z,8.30
2019-02-17T03:36:37.321Z,8.30
2019-02-17T03:37:14.943Z,8.30
2019-02-17T03:37:55.825Z,8.30
2019-02-17T03:38:33.839Z,8.30
2019-02-17T03:39:11.636Z,8.30
2019-02-17T03:39:48.707Z,8.30
2019-02-17T03:40:26.087Z,8.30
2019-02-17T03:41:03.833Z,8.30
2019-02-17T03:41:41.566Z,8.30
2019-02-17T03:42:19.589Z,8.30
2019-02-17T03:42:57.221Z,8.30
2019-02-17T03:43:34.518Z,8.30
2019-02-17T03:44:11.605Z,8.30
2019-02-17T03:44:49.326Z,8.30
2019-02-17T03:45:27.265Z,8.30
2019-02-17T03:46:05.026Z,8.30
2019-02-17T03:46:42.962Z,8.30
2019-02-17T03:47:20.973Z,8.30
2019-02-17T03:47:58.771Z,8.30
2019-02-17T03:48:36.860Z,8.30
2019-02-17T03:49:14.630Z,8.30
2019-02-17T03:49:52.119Z,8.30
2019-02-17T03:50:29.830Z,8.30
2019-02-17T03:51:07.489Z,8.30
2019-02-17T03:51:45.023Z,8.30
2019-02-17T03:52:23.075Z,8.30
2019-02-17T03:53:00.489Z,8.30
2019-02-17T03:53:37.950Z,8.30
2019-02-17T03:54:15.903Z,8.30
2019-02-17T03:54:53.631Z,8.30
2019-02-17T03:55:31.271Z,8.30
2019-02-17T03:56:08.978Z,8.30
2019-02-17T03:56:46.433Z,8.30
2019-02-17T03:57:23.919Z,8.30
2019-02-17T03:58:01.319Z,8.30
2019-02-17T03:58:38.665Z,8.30
2019-02-17T03:59:16.535Z,8.30
2019-02-17T03:59:54.716Z,8.30
2019-02-17T04:00:32.111Z,8.30
2019-02-17T04:01:10.027Z,8.30
2019-02-17T04:01:47.614Z,8.30
2019-02-17T04:02:25.331Z,8.30
2019-02-17T04:03:03.374Z,8.30
2019-02-17T04:03:41.027Z,8.30
2019-02-17T04:04:18.017Z,8.30
2019-02-17T04:04:54.995Z,8.30
2019-02-17T04:05:32.999Z,8.30
2019-02-17T04:06:10.073Z,8.30
2019-02-17T04:06:47.537Z,8.30
2019-02-17T04:07:25.673Z,8.20
2019-02-17T04:08:03.421Z,8.30
2019-02-17T04:08:40.501Z,8.20
2019-02-17T04:09:18.172Z,8.30
2019-02-17T04:09:55.737Z,8.20
2019-02-17T04:10:33.437Z,8.30
2019-02-17T04:11:10.697Z,8.30
2019-02-17T04:11:48.315Z,8.30
2019-02-17T04:12:26.383Z,8.30
2019-02-17T04:13:06.825Z,8.30
2019-02-17T04:13:44.239Z,8.30
2019-02-17T04:14:22.098Z,8.30
2019-02-17T04:14:59.846Z,8.30
2019-02-17T04:15:37.417Z,8.30
2019-02-17T04:16:14.935Z,8.30
2019-02-17T04:16:55.390Z,8.20
2019-02-17T04:17:33.178Z,8.30
2019-02-17T04:18:10.868Z,8.20
2019-02-17T04:18:48.321Z,8.30
2019-02-17T04:19:26.006Z,8.20
2019-02-17T04:20:04.081Z,8.20
2019-02-17T04:20:41.493Z,8.20
2019-02-17T04:21:19.375Z,8.20
2019-02-17T04:21:57.296Z,8.20
2019-02-17T04:22:35.244Z,8.20
2019-02-17T04:23:12.825Z,8.20
2019-02-17T04:23:50.821Z,8.20
2019-02-17T04:24:28.837Z,8.20
2019-02-17T04:25:07.337Z,8.20
2019-02-17T04:25:44.790Z,8.20
2019-02-17T04:26:22.681Z,8.20
2019-02-17T04:27:00.090Z,8.20
2019-02-17T04:27:37.763Z,8.20
2019-02-17T04:28:15.757Z,8.20
2019-02-17T04:28:53.538Z,8.20
2019-02-17T04:29:31.619Z,8.20
2019-02-17T04:30:11.956Z,8.20
2019-02-17T04:30:49.364Z,8.20
2019-02-17T04:31:26.707Z,8.20
2019-02-17T04:32:04.095Z,8.20
2019-02-17T04:32:41.153Z,8.20
2019-02-17T04:33:18.849Z,8.20
2019-02-17T04:34:15.465Z,8.20
2019-02-17T04:34:53.157Z,8.20
2019-02-17T04:35:31.958Z,8.20
2019-02-17T04:36:10.046Z,8.20
2019-02-17T04:36:47.145Z,8.20
2019-02-17T04:37:25.110Z,8.20
2019-02-17T04:38:03.137Z,8.20
2019-02-17T04:38:40.177Z,8.10
2019-02-17T04:39:17.784Z,8.20
2019-02-17T04:39:55.135Z,8.10
2019-02-17T04:40:33.029Z,8.10
2019-02-17T04:41:10.893Z,8.10
2019-02-17T04:41:48.293Z,8.10
2019-02-17T04:42:26.100Z,8.10
2019-02-17T04:43:03.963Z,8.10
2019-02-17T04:43:41.936Z,8.10
2019-02-17T04:44:19.744Z,8.10
2019-02-17T04:44:57.449Z,8.10
2019-02-17T04:45:34.597Z,8.10
2019-02-17T04:46:12.716Z,8.10
2019-02-17T04:46:50.396Z,8.10
2019-02-17T04:47:28.116Z,8.10
2019-02-17T04:48:05.789Z,8.10
2019-02-17T04:48:43.523Z,8.10
2019-02-17T04:49:21.131Z,8.10
2019-02-17T04:49:59.199Z,8.10
2019-02-17T04:50:36.163Z,8.10
2019-02-17T04:51:14.198Z,8.10
2019-02-17T04:51:52.152Z,8.10
2019-02-17T04:52:30.135Z,8.10
2019-02-17T04:53:07.819Z,8.10
2019-02-17T04:53:45.302Z,8.10
2019-02-17T04:54:22.246Z,8.10
2019-02-17T04:55:00.364Z,8.10
2019-02-17T04:55:38.066Z,8.10
2019-02-17T04:56:19.217Z,8.10
2019-02-17T04:56:56.915Z,8.10
2019-02-17T04:57:33.879Z,8.20
2019-02-17T04:58:11.641Z,8.10
2019-02-17T04:58:48.910Z,8.10
2019-02-17T04:59:26.599Z,8.10
2019-02-17T05:00:04.167Z,8.10
2019-02-17T05:00:41.661Z,8.10
2019-02-17T05:01:19.274Z,8.10
2019-02-17T05:01:56.624Z,8.10
2019-02-17T05:02:34.092Z,8.10
2019-02-17T05:03:11.360Z,8.10
2019-02-17T05:03:48.845Z,8.10
2019-02-17T05:04:26.691Z,8.10
2019-02-17T05:05:04.107Z,8.10
2019-02-17T05:05:41.201Z,8.10
2019-02-17T05:06:18.351Z,8.10
2019-02-17T05:06:56.129Z,8.10
2019-02-17T05:07:33.504Z,8.10
2019-02-17T05:08:10.942Z,8.10
2019-02-17T05:08:48.314Z,8.10
2019-02-17T05:09:26.362Z,8.10
2019-02-17T05:10:03.456Z,8.10
2019-02-17T05:10:41.520Z,8.10
2019-02-17T05:11:19.205Z,8.10
2019-02-17T05:11:56.377Z,8.10
2019-02-17T05:12:33.968Z,8.10
2019-02-17T05:13:14.252Z,8.10
2019-02-17T05:13:51.577Z,8.10
2019-02-17T05:14:28.976Z,8.10
2019-02-17T05:15:07.427Z,8.10
2019-02-17T05:15:45.573Z,8.10
2019-02-17T05:16:23.136Z,8.10
2019-02-17T05:17:00.713Z,8.10
2019-02-17T05:17:38.608Z,8.10
2019-02-17T05:18:15.977Z,8.10
2019-02-17T05:18:53.353Z,8.10
2019-02-17T05:19:31.453Z,8.10
2019-02-17T05:20:08.923Z,8.10
2019-02-17T05:20:46.829Z,8.10
2019-02-17T05:21:24.220Z,8.10
2019-02-17T05:22:01.976Z,8.10
2019-02-17T05:22:39.376Z,8.10
2019-02-17T05:23:17.772Z,8.10
2019-02-17T05:23:55.410Z,8.10
2019-02-17T05:24:33.128Z,8.10
2019-02-17T05:25:11.295Z,8.10
2019-02-17T05:25:49.330Z,8.10
2019-02-17T05:26:27.099Z,8.10
2019-02-17T05:27:05.234Z,8.10
2019-02-17T05:27:42.864Z,8.10
2019-02-17T05:28:20.445Z,8.10
2019-02-17T05:28:58.886Z,8.10
2019-02-17T05:29:36.336Z,8.10
2019-02-17T05:30:14.312Z,8.10
2019-02-17T05:30:53.382Z,8.10
2019-02-17T05:31:31.148Z,8.10
2019-02-17T05:32:08.886Z,8.10
2019-02-17T05:32:46.304Z,8.10
2019-02-17T05:33:24.231Z,8.20
2019-02-17T05:34:03.778Z,8.20
2019-02-17T05:34:41.584Z,8.20
2019-02-17T05:35:19.320Z,8.20
2019-02-17T05:35:57.204Z,8.20
2019-02-17T05:36:54.221Z,8.20
2019-02-17T05:37:31.668Z,8.20
2019-02-17T05:38:09.305Z,8.20
2019-02-17T05:38:46.959Z,8.20
2019-02-17T05:39:24.910Z,8.10
2019-02-17T05:40:02.400Z,8.20
2019-02-17T05:40:39.885Z,8.20
2019-02-17T05:41:17.560Z,8.20
2019-02-17T05:41:55.249Z,8.20
2019-02-17T05:42:31.908Z,8.20
2019-02-17T05:43:09.615Z,8.20
2019-02-17T05:43:46.995Z,8.20
2019-02-17T05:44:24.688Z,8.20
2019-02-17T05:45:02.610Z,8.20
2019-02-17T05:45:40.428Z,8.20
2019-02-17T05:46:18.265Z,8.20
2019-02-17T05:46:55.904Z,8.20
2019-02-17T05:47:33.512Z,8.20
2019-02-17T05:48:12.546Z,8.20
2019-02-17T05:48:49.999Z,8.20
2019-02-17T05:49:27.069Z,8.20
2019-02-17T05:50:04.519Z,8.20
2019-02-17T05:50:42.525Z,8.20
2019-02-17T05:51:20.261Z,8.20
2019-02-17T05:51:57.867Z,8.20
2019-02-17T05:52:35.352Z,8.20
2019-02-17T05:53:12.677Z,8.20
2019-02-17T05:53:50.325Z,8.20
2019-02-17T05:54:27.695Z,8.20
2019-02-17T05:55:05.940Z,8.20
2019-02-17T05:55:43.856Z,8.20
2019-02-17T05:56:21.212Z,8.20
2019-02-17T05:56:59.120Z,8.20
2019-02-17T05:57:36.551Z,8.20
2019-02-17T05:58:14.204Z,8.20
2019-02-17T05:58:51.988Z,8.20
2019-02-17T05:59:29.986Z,8.20
2019-02-17T06:00:08.522Z,8.20
2019-02-17T06:00:45.898Z,8.20
2019-02-17T06:01:23.964Z,8.20
2019-02-17T06:02:01.360Z,8.20
2019-02-17T06:02:39.060Z,8.20
2019-02-17T06:03:16.708Z,8.20
2019-02-17T06:03:53.792Z,8.20
2019-02-17T06:04:31.238Z,8.20
2019-02-17T06:05:09.776Z,8.20
2019-02-17T06:05:46.808Z,8.20
2019-02-17T06:06:24.867Z,8.20
2019-02-17T06:07:02.178Z,8.20
2019-02-17T06:07:40.232Z,8.20
2019-02-17T06:08:17.689Z,8.20
2019-02-17T06:08:55.438Z,8.20
2019-02-17T06:09:33.265Z,8.20
2019-02-17T06:10:11.468Z,8.20
2019-02-17T06:10:49.001Z,8.20
2019-02-17T06:11:26.997Z,8.20
2019-02-17T06:12:04.881Z,8.20
2019-02-17T06:12:42.676Z,8.20
2019-02-17T06:13:20.715Z,8.20
2019-02-17T06:13:58.130Z,8.20
2019-02-17T06:14:35.650Z,8.20
2019-02-17T06:15:13.195Z,8.20
2019-02-17T06:15:51.107Z,8.20
2019-02-17T06:16:28.557Z,8.20
2019-02-17T06:17:05.929Z,8.20
2019-02-17T06:18:02.985Z,8.20
2019-02-17T06:18:40.597Z,8.20
2019-02-17T06:19:18.369Z,8.20
2019-02-17T06:19:56.220Z,8.20
2019-02-17T06:20:34.160Z,8.20
2019-02-17T06:21:11.904Z,8.20
2019-02-17T06:21:49.512Z,8.20
2019-02-17T06:22:26.476Z,8.20
2019-02-17T06:23:04.395Z,8.20
2019-02-17T06:23:42.177Z,8.20
2019-02-17T06:24:20.111Z,8.20
2019-02-17T06:24:57.840Z,8.20
2019-02-17T06:25:35.826Z,8.20
2019-02-17T06:26:13.690Z,8.20
2019-02-17T06:26:51.045Z,8.20
2019-02-17T06:27:28.662Z,8.20
2019-02-17T06:28:06.350Z,8.30
2019-02-17T06:28:43.790Z,8.20
2019-02-17T06:29:21.572Z,8.30
2019-02-17T06:29:58.952Z,8.30
2019-02-17T06:30:36.693Z,8.30
2019-02-17T06:31:14.905Z,8.30
2019-02-17T06:31:52.804Z,8.30
2019-02-17T06:32:30.534Z,8.30
2019-02-17T06:33:08.472Z,8.30
2019-02-17T06:33:46.552Z,8.30
2019-02-17T06:34:24.630Z,8.30
2019-02-17T06:35:02.320Z,8.30
2019-02-17T06:35:40.387Z,8.30
2019-02-17T06:36:18.045Z,8.30
2019-02-17T06:37:14.969Z,8.30
2019-02-17T06:37:52.271Z,8.30
2019-02-17T06:38:29.572Z,8.30
2019-02-17T06:39:07.954Z,8.30
2019-02-17T06:39:45.590Z,8.30
2019-02-17T06:40:22.903Z,8.30
2019-02-17T06:41:00.819Z,8.30
2019-02-17T06:41:39.535Z,8.30
2019-02-17T06:42:17.328Z,8.30
2019-02-17T06:42:55.313Z,8.30
2019-02-17T06:43:33.375Z,8.30
2019-02-17T06:44:11.367Z,8.30
2019-02-17T06:44:50.279Z,8.30
2019-02-17T06:45:27.953Z,8.30
2019-02-17T06:46:05.516Z,8.30
2019-02-17T06:46:46.735Z,8.30
2019-02-17T06:47:31.026Z,8.30
2019-02-17T06:48:09.906Z,8.30
2019-02-17T06:48:47.305Z,8.30
2019-02-17T06:49:24.739Z,8.30
2019-02-17T06:50:01.851Z,8.40
2019-02-17T06:50:39.285Z,8.40
2019-02-17T06:51:18.249Z,8.40
2019-02-17T06:51:55.725Z,8.40
2019-02-17T06:52:33.221Z,8.40
2019-02-17T06:53:10.921Z,8.40
2019-02-17T06:53:48.367Z,8.40
2019-02-17T06:54:26.179Z,8.40
2019-02-17T06:55:23.213Z,8.40
2019-02-17T06:56:10.195Z,8.40
2019-02-17T06:57:07.033Z,8.40
2019-02-17T06:57:44.757Z,8.40
2019-02-17T06:58:21.987Z,8.40
2019-02-17T06:58:59.688Z,8.50
2019-02-17T06:59:36.727Z,8.40
2019-02-17T07:00:21.485Z,8.50
2019-02-17T07:01:00.776Z,8.50
2019-02-17T07:01:38.501Z,8.50
2019-02-17T07:02:17.345Z,8.50
2019-02-17T07:02:55.404Z,8.50
2019-02-17T07:03:32.818Z,8.50
2019-02-17T07:04:09.856Z,8.50
2019-02-17T07:05:04.620Z,8.50
2019-02-17T07:06:06.789Z,8.50
2019-02-17T07:06:48.556Z,8.50
2019-02-17T07:07:25.939Z,8.50
2019-02-17T07:08:03.819Z,8.50
2019-02-17T07:08:43.343Z,8.50
2019-02-17T07:09:21.030Z,8.50
2019-02-17T07:09:58.750Z,8.50
2019-02-17T07:10:36.411Z,8.50
2019-02-17T07:11:14.021Z,8.60
2019-02-17T07:11:51.761Z,8.60
2019-02-17T07:12:29.147Z,8.60
2019-02-17T07:13:06.145Z,8.60
2019-02-17T07:13:43.520Z,8.60
2019-02-17T07:14:20.960Z,8.60
2019-02-17T07:14:58.955Z,8.60
2019-02-17T07:15:36.355Z,8.60
2019-02-17T07:16:16.161Z,8.70
2019-02-17T07:16:54.165Z,8.70
2019-02-17T07:17:31.579Z,8.70
2019-02-17T07:18:09.539Z,8.70
2019-02-17T07:18:47.121Z,8.70
2019-02-17T07:19:24.580Z,8.70
2019-02-17T07:20:01.899Z,8.70
2019-02-17T07:20:40.754Z,8.70
2019-02-17T07:21:18.150Z,8.70
2019-02-17T07:21:56.221Z,8.70
2019-02-17T07:22:34.077Z,8.70
2019-02-17T07:23:16.292Z,8.70
2019-02-17T07:23:54.180Z,8.70
2019-02-17T07:24:31.809Z,8.70
2019-02-17T07:25:09.335Z,8.70
2019-02-17T07:25:47.245Z,8.70
2019-02-17T07:26:25.225Z,8.70
2019-02-17T07:27:03.374Z,8.70
2019-02-17T07:27:41.272Z,8.70
2019-02-17T07:28:19.227Z,8.70
2019-02-17T07:28:56.490Z,8.70
2019-02-17T07:29:34.502Z,8.70
2019-02-17T07:30:11.965Z,8.70
2019-02-17T07:30:49.798Z,8.70
2019-02-17T07:31:34.972Z,8.70
2019-02-17T07:32:08.972Z,8.70
2019-02-17T07:32:46.671Z,8.70
2019-02-17T07:33:24.700Z,8.70
2019-02-17T07:34:01.769Z,8.70
2019-02-17T07:34:39.547Z,8.80
2019-02-17T07:35:16.599Z,8.80
2019-02-17T07:35:54.030Z,8.80
2019-02-17T07:36:31.662Z,8.80
2019-02-17T07:37:09.502Z,8.80
2019-02-17T07:37:47.129Z,8.80
2019-02-17T07:38:24.852Z,8.80
2019-02-17T07:39:02.292Z,8.80
2019-02-17T07:39:39.992Z,8.80
2019-02-17T07:40:17.062Z,8.80
2019-02-17T07:40:54.901Z,8.80
2019-02-17T07:41:32.313Z,8.80
2019-02-17T07:42:09.824Z,8.80
2019-02-17T07:42:47.200Z,8.90
2019-02-17T07:43:24.871Z,8.90
2019-02-17T07:44:02.652Z,8.90
2019-02-17T07:44:40.587Z,8.90
2019-02-17T07:45:18.691Z,8.90
2019-02-17T07:45:56.118Z,8.90
2019-02-17T07:46:35.110Z,8.90
2019-02-17T07:47:12.706Z,8.90
2019-02-17T07:47:50.184Z,8.90
2019-02-17T07:48:26.863Z,8.90
2019-02-17T07:49:04.529Z,8.90
2019-02-17T07:49:41.896Z,8.90
2019-02-17T07:50:19.308Z,9.00
2019-02-17T07:50:58.667Z,9.00
2019-02-17T07:51:38.510Z,9.00
2019-02-17T07:52:16.153Z,9.00
2019-02-17T07:52:53.905Z,9.00
2019-02-17T07:53:31.378Z,9.00
2019-02-17T07:54:08.680Z,9.00
2019-02-17T07:54:46.668Z,9.00
2019-02-17T07:55:43.570Z,9.00
2019-02-17T07:56:23.916Z,9.00
2019-02-17T07:57:01.050Z,9.00
2019-02-17T07:57:38.631Z,9.00
2019-02-17T07:58:16.367Z,9.10
2019-02-17T07:58:53.844Z,9.00
2019-02-17T07:59:31.699Z,9.10
2019-02-17T08:00:09.663Z,9.10
2019-02-17T08:00:47.646Z,9.10
2019-02-17T08:01:25.085Z,9.10
2019-02-17T08:02:06.990Z,9.00
2019-02-17T08:02:44.752Z,9.00
2019-02-17T08:03:22.540Z,9.10
2019-02-17T08:04:00.270Z,9.10
2019-02-17T08:04:38.190Z,9.10
2019-02-17T08:05:16.002Z,9.10
2019-02-17T08:05:53.988Z,9.10
2019-02-17T08:06:31.363Z,9.10
2019-02-17T08:07:09.104Z,9.10
2019-02-17T08:07:47.188Z,9.10
2019-02-17T08:08:24.850Z,9.10
2019-02-17T08:09:02.592Z,9.10
2019-02-17T08:09:40.643Z,9.10
2019-02-17T08:10:18.759Z,9.10
2019-02-17T08:11:03.785Z,9.10
2019-02-17T08:11:35.108Z,9.10
2019-02-17T08:12:12.872Z,9.10
2019-02-17T08:12:50.577Z,9.10
2019-02-17T08:13:28.294Z,9.10
2019-02-17T08:14:06.080Z,9.10
2019-02-17T08:14:43.844Z,9.10
2019-02-17T08:15:21.210Z,9.10
2019-02-17T08:15:58.842Z,9.10
2019-02-17T08:16:36.463Z,9.10
2019-02-17T08:17:14.496Z,9.10
2019-02-17T08:17:52.569Z,9.10
2019-02-17T08:18:30.277Z,9.10
2019-02-17T08:19:08.356Z,9.20
2019-02-17T08:19:46.277Z,9.20
2019-02-17T08:20:24.094Z,9.20
2019-02-17T08:21:01.291Z,9.20
2019-02-17T08:21:39.060Z,9.20
2019-02-17T08:22:17.145Z,9.20
2019-02-17T08:22:54.600Z,9.20
2019-02-17T08:23:32.410Z,9.20
2019-02-17T08:24:09.890Z,9.20
2019-02-17T08:24:47.674Z,9.20
2019-02-17T08:25:25.118Z,9.20
2019-02-17T08:26:02.710Z,9.20
2019-02-17T08:26:40.313Z,9.20
2019-02-17T08:27:17.720Z,9.20
2019-02-17T08:27:55.203Z,9.30